sensor_id;sensor_type;location;lat;lon;timestamp;temperature;humidity
8180;DHT22;4131;48.810;11.892;2022-11-15T00:01:15;1.30;99.90
8180;DHT22;4131;48.810;11.892;2022-11-15T00:03:46;0.40;99.90
8180;DHT22;4131;48.810;11.892;2022-11-15T00:06:14;0.60;99.90
8180;DHT22;4131;48.810;11.892;2022-11-15T00:08:42;0.30;99.90
8180;DHT22;4131;48.810;11.892;2022-11-15T00:11:11;0.80;99.90
8180;DHT22;4131;48.810;11.892;2022-11-15T00:13:40;1.40;99.90
8180;DHT22;4131;48.810;11.892;2022-11-15T00:16:11;0.90;99.90
8180;DHT22;4131;48.810;11.892;2022-11-15T00:18:39;0.40;99.90
8180;DHT22;4131;48.810;11.892;2022-11-15T00:21:13;0.80;99.90
8180;DHT22;4131;48.810;11.892;2022-11-15T00:23:42;0.40;99.90
8180;DHT22;4131;48.810;11.892;2022-11-15T00:26:11;0.90;99.90
8180;DHT22;4131;48.810;11.892;2022-11-15T00:28:40;1.30;99.90
8180;DHT22;4131;48.810;11.892;2022-11-15T00:31:11;0.40;99.90
8180;DHT22;4131;48.810;11.892;2022-11-15T00:33:40;1.10;99.90
8180;DHT22;4131;48.810;11.892;2022-11-15T00:36:10;1.70;99.90
8180;DHT22;4131;48.810;11.892;2022-11-15T00:38:40;1.50;99.90
8180;DHT22;4131;48.810;11.892;2022-11-15T00:41:08;1.80;99.90
8180;DHT22;4131;48.810;11.892;2022-11-15T00:43:36;0.20;99.90
8180;DHT22;4131;48.810;11.892;2022-11-15T00:46:07;0.20;99.90
8180;DHT22;4131;48.810;11.892;2022-11-15T00:48:36;0.20;99.90
8180;DHT22;4131;48.810;11.892;2022-11-15T00:51:05;1.30;99.90
8180;DHT22;4131;48.810;11.892;2022-11-15T00:53:33;0.10;99.90
8180;DHT22;4131;48.810;11.892;2022-11-15T00:56:03;0.40;99.90
8180;DHT22;4131;48.810;11.892;2022-11-15T00:58:31;0.00;99.90
8180;DHT22;4131;48.810;11.892;2022-11-15T01:01:06;1.40;99.90
8180;DHT22;4131;48.810;11.892;2022-11-15T01:03:34;-0.10;99.90
8180;DHT22;4131;48.810;11.892;2022-11-15T01:06:03;0.90;99.90
8180;DHT22;4131;48.810;11.892;2022-11-15T01:08:32;0.70;99.90
8180;DHT22;4131;48.810;11.892;2022-11-15T01:11:02;-0.10;99.90
8180;DHT22;4131;48.810;11.892;2022-11-15T01:13:31;1.30;99.90
8180;DHT22;4131;48.810;11.892;2022-11-15T01:16:05;-0.20;99.90
8180;DHT22;4131;48.810;11.892;2022-11-15T01:18:33;0.80;99.90
8180;DHT22;4131;48.810;11.892;2022-11-15T01:21:05;0.60;99.90
8180;DHT22;4131;48.810;11.892;2022-11-15T01:23:33;-0.30;99.90
8180;DHT22;4131;48.810;11.892;2022-11-15T01:26:04;-0.30;99.90
8180;DHT22;4131;48.810;11.892;2022-11-15T01:28:33;1.10;99.90
8180;DHT22;4131;48.810;11.892;2022-11-15T01:31:03;0.30;99.90
8180;DHT22;4131;48.810;11.892;2022-11-15T01:33:34;-0.10;99.90
8180;DHT22;4131;48.810;11.892;2022-11-15T01:36:05;1.30;99.90
8180;DHT22;4131;48.810;11.892;2022-11-15T01:38:33;0.00;99.90
8180;DHT22;4131;48.810;11.892;2022-11-15T01:41:03;1.20;99.90
8180;DHT22;4131;48.810;11.892;2022-11-15T01:43:33;-0.10;99.90
8180;DHT22;4131;48.810;11.892;2022-11-15T01:46:05;-0.10;99.90
8180;DHT22;4131;48.810;11.892;2022-11-15T01:48:34;0.60;99.90
8180;DHT22;4131;48.810;11.892;2022-11-15T01:51:06;1.80;99.90
8180;DHT22;4131;48.810;11.892;2022-11-15T01:53:38;1.20;99.90
8180;DHT22;4131;48.810;11.892;2022-11-15T01:56:12;0.60;99.90
8180;DHT22;4131;48.810;11.892;2022-11-15T01:58:42;2.60;99.90
8180;DHT22;4131;48.810;11.892;2022-11-15T02:01:11;1.20;99.90
8180;DHT22;4131;48.810;11.892;2022-11-15T02:03:46;0.00;99.90
8180;DHT22;4131;48.810;11.892;2022-11-15T02:06:15;1.40;99.90
8180;DHT22;4131;48.810;11.892;2022-11-15T02:08:44;-0.20;99.90
8180;DHT22;4131;48.810;11.892;2022-11-15T02:11:13;0.40;99.90
8180;DHT22;4131;48.810;11.892;2022-11-15T02:13:42;0.90;99.90
8180;DHT22;4131;48.810;11.892;2022-11-15T02:16:16;-0.30;99.90
8180;DHT22;4131;48.810;11.892;2022-11-15T02:18:55;0.40;99.90
8180;DHT22;4131;48.810;11.892;2022-11-15T02:21:28;0.00;99.90
8180;DHT22;4131;48.810;11.892;2022-11-15T02:24:27;0.50;99.90
8180;DHT22;4131;48.810;11.892;2022-11-15T02:27:31;-0.30;99.90
8180;DHT22;4131;48.810;11.892;2022-11-15T02:30:29;-0.30;99.90
8180;DHT22;4131;48.810;11.892;2022-11-15T02:33:03;-0.30;99.90
8180;DHT22;4131;48.810;11.892;2022-11-15T02:35:42;0.70;99.90
8180;DHT22;4131;48.810;11.892;2022-11-15T02:38:18;-0.40;99.90
8180;DHT22;4131;48.810;11.892;2022-11-15T02:40:54;1.30;99.90
8180;DHT22;4131;48.810;11.892;2022-11-15T02:43:27;-0.40;99.90
8180;DHT22;4131;48.810;11.892;2022-11-15T02:46:20;-0.50;99.90
8180;DHT22;4131;48.810;11.892;2022-11-15T02:49:11;-0.10;99.90
8180;DHT22;4131;48.810;11.892;2022-11-15T02:51:42;-0.50;99.90
8180;DHT22;4131;48.810;11.892;2022-11-15T02:54:13;-0.50;99.90
8180;DHT22;4131;48.810;11.892;2022-11-15T02:56:43;0.60;99.90
8180;DHT22;4131;48.810;11.892;2022-11-15T02:59:23;0.80;99.90
8180;DHT22;4131;48.810;11.892;2022-11-15T03:02:06;-0.50;99.90
8180;DHT22;4131;48.810;11.892;2022-11-15T03:04:44;-0.50;99.90
8180;DHT22;4131;48.810;11.892;2022-11-15T03:07:22;0.80;99.90
8180;DHT22;4131;48.810;11.892;2022-11-15T03:09:56;-0.50;99.90
8180;DHT22;4131;48.810;11.892;2022-11-15T03:12:30;-0.50;99.90
8180;DHT22;4131;48.810;11.892;2022-11-15T03:15:06;-0.50;99.90
8180;DHT22;4131;48.810;11.892;2022-11-15T03:17:40;-0.60;99.90
8180;DHT22;4131;48.810;11.892;2022-11-15T03:20:13;-0.60;99.90
8180;DHT22;4131;48.810;11.892;2022-11-15T03:22:44;-0.70;99.90
8180;DHT22;4131;48.810;11.892;2022-11-15T03:25:16;-0.60;99.90
8180;DHT22;4131;48.810;11.892;2022-11-15T03:27:49;-0.70;99.90
8180;DHT22;4131;48.810;11.892;2022-11-15T03:30:19;-0.60;99.90
8180;DHT22;4131;48.810;11.892;2022-11-15T03:32:51;-0.60;99.90
8180;DHT22;4131;48.810;11.892;2022-11-15T03:35:22;0.60;99.90
8180;DHT22;4131;48.810;11.892;2022-11-15T03:37:56;-0.60;99.90
8180;DHT22;4131;48.810;11.892;2022-11-15T03:40:30;-0.70;99.90
8180;DHT22;4131;48.810;11.892;2022-11-15T03:43:06;-0.70;99.90
8180;DHT22;4131;48.810;11.892;2022-11-15T03:45:41;-0.70;99.90
8180;DHT22;4131;48.810;11.892;2022-11-15T03:48:14;0.70;99.90
8180;DHT22;4131;48.810;11.892;2022-11-15T03:50:45;-0.60;99.90
8180;DHT22;4131;48.810;11.892;2022-11-15T03:53:14;-0.70;99.90
8180;DHT22;4131;48.810;11.892;2022-11-15T03:55:42;-0.60;99.90
8180;DHT22;4131;48.810;11.892;2022-11-15T03:58:10;1.10;99.90
8180;DHT22;4131;48.810;11.892;2022-11-15T04:00:38;-0.60;99.90
8180;DHT22;4131;48.810;11.892;2022-11-15T04:03:06;0.50;99.90
8180;DHT22;4131;48.810;11.892;2022-11-15T04:05:36;-0.60;99.90
8180;DHT22;4131;48.810;11.892;2022-11-15T04:08:04;-0.80;99.90
8180;DHT22;4131;48.810;11.892;2022-11-15T04:13:02;-0.70;99.90
8180;DHT22;4131;48.810;11.892;2022-11-15T04:17:59;-0.80;99.90
8180;DHT22;4131;48.810;11.892;2022-11-15T04:20:29;1.20;99.90
8180;DHT22;4131;48.810;11.892;2022-11-15T04:23:18;0.70;99.90
8180;DHT22;4131;48.810;11.892;2022-11-15T04:26:05;-0.10;99.90
8180;DHT22;4131;48.810;11.892;2022-11-15T04:31:23;-1.00;99.90
8180;DHT22;4131;48.810;11.892;2022-11-15T04:33:51;-1.00;99.90
8180;DHT22;4131;48.810;11.892;2022-11-15T04:36:19;-1.00;99.90
8180;DHT22;4131;48.810;11.892;2022-11-15T04:39:06;-1.10;99.90
8180;DHT22;4131;48.810;11.892;2022-11-15T04:41:35;-1.00;99.90
8180;DHT22;4131;48.810;11.892;2022-11-15T04:44:03;0.80;99.90
8180;DHT22;4131;48.810;11.892;2022-11-15T04:46:31;0.40;99.90
8180;DHT22;4131;48.810;11.892;2022-11-15T04:48:59;0.30;99.90
8180;DHT22;4131;48.810;11.892;2022-11-15T04:51:27;1.00;99.90
8180;DHT22;4131;48.810;11.892;2022-11-15T04:53:55;-1.00;99.90
8180;DHT22;4131;48.810;11.892;2022-11-15T04:56:25;-1.10;99.90
8180;DHT22;4131;48.810;11.892;2022-11-15T04:58:53;-1.10;99.90
8180;DHT22;4131;48.810;11.892;2022-11-15T05:01:21;0.30;99.90
8180;DHT22;4131;48.810;11.892;2022-11-15T05:03:49;-1.10;99.90
8180;DHT22;4131;48.810;11.892;2022-11-15T05:06:35;-1.10;99.90
8180;DHT22;4131;48.810;11.892;2022-11-15T05:09:03;-1.20;99.90
8180;DHT22;4131;48.810;11.892;2022-11-15T05:11:32;0.70;99.90
8180;DHT22;4131;48.810;11.892;2022-11-15T05:14:00;-1.20;99.90
8180;DHT22;4131;48.810;11.892;2022-11-15T05:16:28;-1.20;99.90
8180;DHT22;4131;48.810;11.892;2022-11-15T05:18:56;-1.10;99.90
8180;DHT22;4131;48.810;11.892;2022-11-15T05:21:24;-0.40;99.90
8180;DHT22;4131;48.810;11.892;2022-11-15T05:23:52;-1.20;99.90
8180;DHT22;4131;48.810;11.892;2022-11-15T05:26:20;-1.20;99.90
8180;DHT22;4131;48.810;11.892;2022-11-15T05:28:53;-1.20;99.90
8180;DHT22;4131;48.810;11.892;2022-11-15T05:31:24;-1.20;99.90
8180;DHT22;4131;48.810;11.892;2022-11-15T05:33:54;0.60;99.90
8180;DHT22;4131;48.810;11.892;2022-11-15T05:36:29;-1.10;99.90
8180;DHT22;4131;48.810;11.892;2022-11-15T05:38:58;0.30;99.90
8180;DHT22;4131;48.810;11.892;2022-11-15T05:41:30;-0.10;99.90
8180;DHT22;4131;48.810;11.892;2022-11-15T05:44:01;-0.90;99.90
8180;DHT22;4131;48.810;11.892;2022-11-15T05:46:30;-1.00;99.90
8180;DHT22;4131;48.810;11.892;2022-11-15T05:51:29;-1.10;99.90
8180;DHT22;4131;48.810;11.892;2022-11-15T05:53:58;-1.10;99.90
8180;DHT22;4131;48.810;11.892;2022-11-15T05:56:26;-1.10;99.90
8180;DHT22;4131;48.810;11.892;2022-11-15T05:58:55;0.20;99.90
8180;DHT22;4131;48.810;11.892;2022-11-15T06:01:27;-1.10;99.90
8180;DHT22;4131;48.810;11.892;2022-11-15T06:03:55;-1.10;99.90
8180;DHT22;4131;48.810;11.892;2022-11-15T06:06:23;-1.10;99.90
8180;DHT22;4131;48.810;11.892;2022-11-15T06:08:52;-1.10;99.90
8180;DHT22;4131;48.810;11.892;2022-11-15T06:11:20;-1.20;99.90
8180;DHT22;4131;48.810;11.892;2022-11-15T06:13:48;-1.10;99.90
8180;DHT22;4131;48.810;11.892;2022-11-15T06:16:16;-0.20;99.90
8180;DHT22;4131;48.810;11.892;2022-11-15T06:18:45;-1.20;99.90
8180;DHT22;4131;48.810;11.892;2022-11-15T06:23:42;-1.20;99.90
8180;DHT22;4131;48.810;11.892;2022-11-15T06:26:10;-0.80;99.90
8180;DHT22;4131;48.810;11.892;2022-11-15T06:28:38;-1.10;99.90
8180;DHT22;4131;48.810;11.892;2022-11-15T06:31:07;-1.10;99.90
8180;DHT22;4131;48.810;11.892;2022-11-15T06:36:08;-1.00;99.90
8180;DHT22;4131;48.810;11.892;2022-11-15T06:38:43;-1.10;1.00
8180;DHT22;4131;48.810;11.892;2022-11-15T06:41:12;-1.00;99.90
8180;DHT22;4131;48.810;11.892;2022-11-15T06:48:38;-0.80;99.90
8180;DHT22;4131;48.810;11.892;2022-11-15T06:51:07;-0.90;99.90
8180;DHT22;4131;48.810;11.892;2022-11-15T06:53:36;-0.90;99.90
8180;DHT22;4131;48.810;11.892;2022-11-15T06:56:06;-0.80;1.00
8180;DHT22;4131;48.810;11.892;2022-11-15T06:58:34;-0.80;1.00
8180;DHT22;4131;48.810;11.892;2022-11-15T07:01:04;-0.70;1.00
8180;DHT22;4131;48.810;11.892;2022-11-15T07:03:34;-0.60;1.00
8180;DHT22;4131;48.810;11.892;2022-11-15T07:08:35;-0.50;1.00
8180;DHT22;4131;48.810;11.892;2022-11-15T07:11:05;0.70;1.00
8180;DHT22;4131;48.810;11.892;2022-11-15T07:13:35;-0.30;1.00
8180;DHT22;4131;48.810;11.892;2022-11-15T07:16:05;1.40;1.00
8180;DHT22;4131;48.810;11.892;2022-11-15T07:18:35;0.10;1.00
8180;DHT22;4131;48.810;11.892;2022-11-15T07:23:32;0.20;1.00
8180;DHT22;4131;48.810;11.892;2022-11-15T07:26:02;0.30;1.00
8180;DHT22;4131;48.810;11.892;2022-11-15T07:28:30;2.20;1.00
8180;DHT22;4131;48.810;11.892;2022-11-15T07:31:02;3.00;1.00
8180;DHT22;4131;48.810;11.892;2022-11-15T07:33:31;2.40;1.00
8180;DHT22;4131;48.810;11.892;2022-11-15T07:36:00;0.40;1.00
8180;DHT22;4131;48.810;11.892;2022-11-15T07:38:29;2.00;1.00
8180;DHT22;4131;48.810;11.892;2022-11-15T07:40:59;2.40;1.00
8180;DHT22;4131;48.810;11.892;2022-11-15T07:43:29;1.30;1.00
8180;DHT22;4131;48.810;11.892;2022-11-15T07:46:04;3.20;1.00
8180;DHT22;4131;48.810;11.892;2022-11-15T07:48:34;0.90;1.00
8180;DHT22;4131;48.810;11.892;2022-11-15T07:51:11;3.00;1.00
8180;DHT22;4131;48.810;11.892;2022-11-15T07:53:41;2.00;1.00
8180;DHT22;4131;48.810;11.892;2022-11-15T07:58:39;1.30;99.90
8180;DHT22;4131;48.810;11.892;2022-11-15T08:01:09;2.50;1.00
8180;DHT22;4131;48.810;11.892;2022-11-15T08:03:38;2.80;1.00
8180;DHT22;4131;48.810;11.892;2022-11-15T08:06:06;2.40;1.00
8180;DHT22;4131;48.810;11.892;2022-11-15T08:08:34;1.60;1.00
8180;DHT22;4131;48.810;11.892;2022-11-15T08:11:03;4.20;1.00
8180;DHT22;4131;48.810;11.892;2022-11-15T08:16:02;2.00;1.00
8180;DHT22;4131;48.810;11.892;2022-11-15T08:18:32;2.00;1.00
8180;DHT22;4131;48.810;11.892;2022-11-15T08:21:01;3.80;1.00
8180;DHT22;4131;48.810;11.892;2022-11-15T08:23:29;2.70;1.00
8180;DHT22;4131;48.810;11.892;2022-11-15T08:26:00;3.80;1.00
8180;DHT22;4131;48.810;11.892;2022-11-15T08:28:30;4.10;1.00
8180;DHT22;4131;48.810;11.892;2022-11-15T08:30:58;4.10;1.00
8180;DHT22;4131;48.810;11.892;2022-11-15T08:33:28;3.60;1.00
8180;DHT22;4131;48.810;11.892;2022-11-15T08:35:56;4.60;1.00
8180;DHT22;4131;48.810;11.892;2022-11-15T08:38:25;3.20;1.00
8180;DHT22;4131;48.810;11.892;2022-11-15T08:41:01;3.70;1.00
8180;DHT22;4131;48.810;11.892;2022-11-15T08:43:30;5.20;1.00
8180;DHT22;4131;48.810;11.892;2022-11-15T08:45:59;3.90;1.00
8180;DHT22;4131;48.810;11.892;2022-11-15T08:48:29;3.20;1.00
8180;DHT22;4131;48.810;11.892;2022-11-15T08:50:58;3.40;1.00
8180;DHT22;4131;48.810;11.892;2022-11-15T08:53:26;5.90;1.00
8180;DHT22;4131;48.810;11.892;2022-11-15T08:55:54;5.80;1.00
8180;DHT22;4131;48.810;11.892;2022-11-15T08:58:22;3.80;1.00
8180;DHT22;4131;48.810;11.892;2022-11-15T09:00:50;4.30;1.00
8180;DHT22;4131;48.810;11.892;2022-11-15T09:03:18;6.60;1.00
8180;DHT22;4131;48.810;11.892;2022-11-15T09:05:48;6.50;1.00
8180;DHT22;4131;48.810;11.892;2022-11-15T09:08:16;7.30;1.00
8180;DHT22;4131;48.810;11.892;2022-11-15T09:11:05;6.50;1.00
8180;DHT22;4131;48.810;11.892;2022-11-15T09:13:34;7.20;1.00
8180;DHT22;4131;48.810;11.892;2022-11-15T09:16:04;8.50;1.00
8180;DHT22;4131;48.810;11.892;2022-11-15T09:18:32;9.50;1.00
8180;DHT22;4131;48.810;11.892;2022-11-15T09:21:02;10.10;1.00
8180;DHT22;4131;48.810;11.892;2022-11-15T09:23:31;9.70;1.00
8180;DHT22;4131;48.810;11.892;2022-11-15T09:25:59;9.30;1.00
8180;DHT22;4131;48.810;11.892;2022-11-15T09:28:28;9.10;1.00
8180;DHT22;4131;48.810;11.892;2022-11-15T09:30:58;8.40;99.90
8180;DHT22;4131;48.810;11.892;2022-11-15T09:33:27;9.50;99.90
8180;DHT22;4131;48.810;11.892;2022-11-15T09:35:59;7.80;99.90
8180;DHT22;4131;48.810;11.892;2022-11-15T09:38:29;8.00;99.90
8180;DHT22;4131;48.810;11.892;2022-11-15T09:41:15;7.80;99.90
8180;DHT22;4131;48.810;11.892;2022-11-15T09:43:55;7.10;99.90
8180;DHT22;4131;48.810;11.892;2022-11-15T09:46:35;7.10;99.90
8180;DHT22;4131;48.810;11.892;2022-11-15T09:49:07;7.10;99.90
8180;DHT22;4131;48.810;11.892;2022-11-15T09:51:38;7.20;99.90
8180;DHT22;4131;48.810;11.892;2022-11-15T09:54:23;7.10;99.90
8180;DHT22;4131;48.810;11.892;2022-11-15T09:57:16;7.20;99.90
8180;DHT22;4131;48.810;11.892;2022-11-15T10:00:17;7.50;99.90
8180;DHT22;4131;48.810;11.892;2022-11-15T10:03:15;7.40;99.90
8180;DHT22;4131;48.810;11.892;2022-11-15T10:06:21;7.50;99.90
8180;DHT22;4131;48.810;11.892;2022-11-15T10:12:47;9.00;99.90
8180;DHT22;4131;48.810;11.892;2022-11-15T10:15:17;8.40;99.90
8180;DHT22;4131;48.810;11.892;2022-11-15T10:18:04;8.00;99.90
8180;DHT22;4131;48.810;11.892;2022-11-15T10:20:42;8.20;99.90
8180;DHT22;4131;48.810;11.892;2022-11-15T10:23:14;9.10;99.90
8180;DHT22;4131;48.810;11.892;2022-11-15T10:25:44;8.40;99.90
8180;DHT22;4131;48.810;11.892;2022-11-15T10:28:16;8.70;99.90
8180;DHT22;4131;48.810;11.892;2022-11-15T10:30:49;9.00;99.90
8180;DHT22;4131;48.810;11.892;2022-11-15T10:33:24;9.10;99.90
8180;DHT22;4131;48.810;11.892;2022-11-15T10:36:15;9.60;99.90
8180;DHT22;4131;48.810;11.892;2022-11-15T10:38:53;10.40;99.90
8180;DHT22;4131;48.810;11.892;2022-11-15T10:41:22;10.90;99.90
8180;DHT22;4131;48.810;11.892;2022-11-15T10:44:20;11.10;99.90
8180;DHT22;4131;48.810;11.892;2022-11-15T10:47:06;11.50;99.90
8180;DHT22;4131;48.810;11.892;2022-11-15T10:49:34;12.00;99.90
8180;DHT22;4131;48.810;11.892;2022-11-15T10:52:12;13.30;99.90
8180;DHT22;4131;48.810;11.892;2022-11-15T10:54:44;12.20;99.90
8180;DHT22;4131;48.810;11.892;2022-11-15T10:57:14;12.10;99.90
8180;DHT22;4131;48.810;11.892;2022-11-15T10:59:46;12.40;99.90
8180;DHT22;4131;48.810;11.892;2022-11-15T11:02:28;11.70;99.90
8180;DHT22;4131;48.810;11.892;2022-11-15T11:04:57;11.70;99.90
8180;DHT22;4131;48.810;11.892;2022-11-15T11:07:27;11.20;99.90
8180;DHT22;4131;48.810;11.892;2022-11-15T11:10:01;11.00;99.90
8180;DHT22;4131;48.810;11.892;2022-11-15T11:12:48;11.00;99.90
8180;DHT22;4131;48.810;11.892;2022-11-15T11:15:18;11.80;99.90
8180;DHT22;4131;48.810;11.892;2022-11-15T11:17:57;11.00;99.90
8180;DHT22;4131;48.810;11.892;2022-11-15T11:20:33;11.10;99.90
8180;DHT22;4131;48.810;11.892;2022-11-15T11:23:28;11.10;99.90
8180;DHT22;4131;48.810;11.892;2022-11-15T11:26:18;11.40;99.90
8180;DHT22;4131;48.810;11.892;2022-11-15T11:28:58;11.10;99.90
8180;DHT22;4131;48.810;11.892;2022-11-15T11:31:42;11.10;99.90
8180;DHT22;4131;48.810;11.892;2022-11-15T11:34:19;11.80;99.90
8180;DHT22;4131;48.810;11.892;2022-11-15T11:37:00;11.40;99.90
8180;DHT22;4131;48.810;11.892;2022-11-15T11:39:36;11.50;99.90
8180;DHT22;4131;48.810;11.892;2022-11-15T11:42:13;12.20;99.90
8180;DHT22;4131;48.810;11.892;2022-11-15T11:44:54;11.80;99.90
8180;DHT22;4131;48.810;11.892;2022-11-15T11:47:31;11.70;99.90
8180;DHT22;4131;48.810;11.892;2022-11-15T11:50:11;11.80;99.90
8180;DHT22;4131;48.810;11.892;2022-11-15T11:52:54;11.80;99.90
8180;DHT22;4131;48.810;11.892;2022-11-15T11:55:32;11.90;99.90
8180;DHT22;4131;48.810;11.892;2022-11-15T11:58:09;12.00;99.90
8180;DHT22;4131;48.810;11.892;2022-11-15T12:00:43;11.90;99.90
8180;DHT22;4131;48.810;11.892;2022-11-15T12:03:24;11.90;99.90
8180;DHT22;4131;48.810;11.892;2022-11-15T12:05:54;11.90;99.90
8180;DHT22;4131;48.810;11.892;2022-11-15T12:08:31;12.00;99.90
8180;DHT22;4131;48.810;11.892;2022-11-15T12:11:08;12.20;99.90
8180;DHT22;4131;48.810;11.892;2022-11-15T12:13:38;12.50;99.90
8180;DHT22;4131;48.810;11.892;2022-11-15T12:16:12;12.60;99.90
8180;DHT22;4131;48.810;11.892;2022-11-15T12:18:47;12.80;99.90
8180;DHT22;4131;48.810;11.892;2022-11-15T12:21:20;12.90;99.90
8180;DHT22;4131;48.810;11.892;2022-11-15T12:23:58;13.00;99.90
8180;DHT22;4131;48.810;11.892;2022-11-15T12:26:34;13.40;99.90
8180;DHT22;4131;48.810;11.892;2022-11-15T12:29:06;14.40;99.90
8180;DHT22;4131;48.810;11.892;2022-11-15T12:31:39;15.30;99.90
8180;DHT22;4131;48.810;11.892;2022-11-15T12:34:33;16.10;99.90
8180;DHT22;4131;48.810;11.892;2022-11-15T12:37:34;16.20;99.90
8180;DHT22;4131;48.810;11.892;2022-11-15T12:40:27;16.70;99.90
8180;DHT22;4131;48.810;11.892;2022-11-15T12:46:02;17.70;99.90
8180;DHT22;4131;48.810;11.892;2022-11-15T12:48:58;17.30;99.90
8180;DHT22;4131;48.810;11.892;2022-11-15T12:55:00;16.20;99.90
8180;DHT22;4131;48.810;11.892;2022-11-15T12:57:40;15.40;99.90
8180;DHT22;4131;48.810;11.892;2022-11-15T13:00:42;14.90;99.90
8180;DHT22;4131;48.810;11.892;2022-11-15T13:06:34;14.30;99.90
8180;DHT22;4131;48.810;11.892;2022-11-15T13:12:49;13.90;99.90
8180;DHT22;4131;48.810;11.892;2022-11-15T13:15:35;13.90;99.90
8180;DHT22;4131;48.810;11.892;2022-11-15T13:18:32;13.90;99.90
8180;DHT22;4131;48.810;11.892;2022-11-15T13:21:03;13.80;99.90
8180;DHT22;4131;48.810;11.892;2022-11-15T13:23:54;13.60;99.90
8180;DHT22;4131;48.810;11.892;2022-11-15T13:26:23;13.50;99.90
8180;DHT22;4131;48.810;11.892;2022-11-15T13:28:53;13.40;99.90
8180;DHT22;4131;48.810;11.892;2022-11-15T13:31:28;13.30;99.90
8180;DHT22;4131;48.810;11.892;2022-11-15T13:34:00;13.20;99.90
8180;DHT22;4131;48.810;11.892;2022-11-15T13:36:30;13.80;99.90
8180;DHT22;4131;48.810;11.892;2022-11-15T13:39:01;13.20;99.90
8180;DHT22;4131;48.810;11.892;2022-11-15T13:41:32;13.30;99.90
8180;DHT22;4131;48.810;11.892;2022-11-15T13:44:03;13.60;99.90
8180;DHT22;4131;48.810;11.892;2022-11-15T13:46:32;14.00;99.90
8180;DHT22;4131;48.810;11.892;2022-11-15T13:49:02;14.40;99.90
8180;DHT22;4131;48.810;11.892;2022-11-15T13:51:37;14.80;99.90
8180;DHT22;4131;48.810;11.892;2022-11-15T13:54:13;15.30;99.90
8180;DHT22;4131;48.810;11.892;2022-11-15T13:56:45;16.00;99.90
8180;DHT22;4131;48.810;11.892;2022-11-15T13:59:23;16.30;99.90
8180;DHT22;4131;48.810;11.892;2022-11-15T14:01:54;16.00;99.90
8180;DHT22;4131;48.810;11.892;2022-11-15T14:04:24;15.60;99.90
8180;DHT22;4131;48.810;11.892;2022-11-15T14:06:56;14.90;99.90
8180;DHT22;4131;48.810;11.892;2022-11-15T14:09:36;14.20;99.90
8180;DHT22;4131;48.810;11.892;2022-11-15T14:12:21;13.80;99.90
8180;DHT22;4131;48.810;11.892;2022-11-15T14:14:51;13.40;99.90
8180;DHT22;4131;48.810;11.892;2022-11-15T14:17:21;13.10;99.90
8180;DHT22;4131;48.810;11.892;2022-11-15T14:19:50;12.80;99.90
8180;DHT22;4131;48.810;11.892;2022-11-15T14:22:22;12.50;99.90
8180;DHT22;4131;48.810;11.892;2022-11-15T14:25:13;12.40;99.90
8180;DHT22;4131;48.810;11.892;2022-11-15T14:27:43;12.20;99.90
8180;DHT22;4131;48.810;11.892;2022-11-15T14:30:17;12.00;99.90
8180;DHT22;4131;48.810;11.892;2022-11-15T14:32:50;11.90;99.90
8180;DHT22;4131;48.810;11.892;2022-11-15T14:35:20;11.70;99.90
8180;DHT22;4131;48.810;11.892;2022-11-15T14:37:49;11.70;99.90
8180;DHT22;4131;48.810;11.892;2022-11-15T14:40:19;11.80;99.90
8180;DHT22;4131;48.810;11.892;2022-11-15T14:42:48;11.90;99.90
8180;DHT22;4131;48.810;11.892;2022-11-15T14:45:20;12.00;99.90
8180;DHT22;4131;48.810;11.892;2022-11-15T14:47:48;12.10;99.90
8180;DHT22;4131;48.810;11.892;2022-11-15T14:50:18;12.30;99.90
8180;DHT22;4131;48.810;11.892;2022-11-15T14:52:47;12.50;99.90
8180;DHT22;4131;48.810;11.892;2022-11-15T14:55:19;12.50;99.90
8180;DHT22;4131;48.810;11.892;2022-11-15T14:57:50;12.60;99.90
8180;DHT22;4131;48.810;11.892;2022-11-15T15:00:21;12.30;99.90
8180;DHT22;4131;48.810;11.892;2022-11-15T15:02:52;12.30;99.90
8180;DHT22;4131;48.810;11.892;2022-11-15T15:05:22;11.90;99.90
8180;DHT22;4131;48.810;11.892;2022-11-15T15:07:51;11.60;99.90
8180;DHT22;4131;48.810;11.892;2022-11-15T15:10:20;11.50;99.90
8180;DHT22;4131;48.810;11.892;2022-11-15T15:13:08;11.20;99.90
8180;DHT22;4131;48.810;11.892;2022-11-15T15:15:39;10.90;99.90
8180;DHT22;4131;48.810;11.892;2022-11-15T15:18:07;11.00;99.90
8180;DHT22;4131;48.810;11.892;2022-11-15T15:20:35;11.30;99.90
8180;DHT22;4131;48.810;11.892;2022-11-15T15:23:13;9.90;99.90
8180;DHT22;4131;48.810;11.892;2022-11-15T15:25:42;12.20;99.90
8180;DHT22;4131;48.810;11.892;2022-11-15T15:28:12;9.50;99.90
8180;DHT22;4131;48.810;11.892;2022-11-15T15:30:42;10.60;99.90
8180;DHT22;4131;48.810;11.892;2022-11-15T15:33:10;9.20;99.90
8180;DHT22;4131;48.810;11.892;2022-11-15T15:35:39;9.00;99.90
8180;DHT22;4131;48.810;11.892;2022-11-15T15:38:10;10.80;99.90
8180;DHT22;4131;48.810;11.892;2022-11-15T15:40:38;9.00;99.90
8180;DHT22;4131;48.810;11.892;2022-11-15T15:43:06;8.60;99.90
8180;DHT22;4131;48.810;11.892;2022-11-15T15:45:37;9.50;99.90
8180;DHT22;4131;48.810;11.892;2022-11-15T15:48:10;8.60;99.90
8180;DHT22;4131;48.810;11.892;2022-11-15T15:50:39;8.20;99.90
8180;DHT22;4131;48.810;11.892;2022-11-15T15:53:10;8.10;99.90
8180;DHT22;4131;48.810;11.892;2022-11-15T15:55:39;8.00;99.90
8180;DHT22;4131;48.810;11.892;2022-11-15T15:58:07;10.00;99.90
8180;DHT22;4131;48.810;11.892;2022-11-15T16:00:36;7.80;99.90
8180;DHT22;4131;48.810;11.892;2022-11-15T16:03:04;7.70;99.90
8180;DHT22;4131;48.810;11.892;2022-11-15T16:05:33;7.90;99.90
8180;DHT22;4131;48.810;11.892;2022-11-15T16:08:02;8.80;99.90
8180;DHT22;4131;48.810;11.892;2022-11-15T16:10:32;7.30;99.90
8180;DHT22;4131;48.810;11.892;2022-11-15T16:13:01;8.90;99.90
8180;DHT22;4131;48.810;11.892;2022-11-15T16:15:30;7.10;99.90
8180;DHT22;4131;48.810;11.892;2022-11-15T16:17:59;7.80;99.90
8180;DHT22;4131;48.810;11.892;2022-11-15T16:20:35;7.00;99.90
8180;DHT22;4131;48.810;11.892;2022-11-15T16:23:05;8.20;99.90
8180;DHT22;4131;48.810;11.892;2022-11-15T16:25:40;7.00;99.90
8180;DHT22;4131;48.810;11.892;2022-11-15T16:28:20;6.90;99.90
8180;DHT22;4131;48.810;11.892;2022-11-15T16:30:49;7.30;99.90
8180;DHT22;4131;48.810;11.892;2022-11-15T16:33:23;6.70;99.90
8180;DHT22;4131;48.810;11.892;2022-11-15T16:35:52;6.60;99.90
8180;DHT22;4131;48.810;11.892;2022-11-15T16:38:20;6.50;99.90
8180;DHT22;4131;48.810;11.892;2022-11-15T16:40:48;8.40;99.90
8180;DHT22;4131;48.810;11.892;2022-11-15T16:43:17;8.10;99.90
8180;DHT22;4131;48.810;11.892;2022-11-15T16:45:45;7.10;99.90
8180;DHT22;4131;48.810;11.892;2022-11-15T16:48:24;6.20;99.90
8180;DHT22;4131;48.810;11.892;2022-11-15T16:50:56;6.10;99.90
8180;DHT22;4131;48.810;11.892;2022-11-15T16:53:25;6.00;99.90
8180;DHT22;4131;48.810;11.892;2022-11-15T16:55:54;6.00;99.90
8180;DHT22;4131;48.810;11.892;2022-11-15T16:58:22;5.90;99.90
8180;DHT22;4131;48.810;11.892;2022-11-15T17:00:51;5.90;99.90
8180;DHT22;4131;48.810;11.892;2022-11-15T17:03:20;5.80;99.90
8180;DHT22;4131;48.810;11.892;2022-11-15T17:05:48;5.70;99.90
8180;DHT22;4131;48.810;11.892;2022-11-15T17:08:18;5.50;99.90
8180;DHT22;4131;48.810;11.892;2022-11-15T17:10:48;6.10;99.90
8180;DHT22;4131;48.810;11.892;2022-11-15T17:13:16;5.40;99.90
8180;DHT22;4131;48.810;11.892;2022-11-15T17:15:44;5.40;99.90
8180;DHT22;4131;48.810;11.892;2022-11-15T17:18:12;5.30;99.90